sensor_id;sensor_type;location;lat;lon;timestamp;P1;durP1;ratioP1;P2;durP2;ratioP2
36995;SDS011;22905;50.340;10.776;2023-05-07T00:03:49;14.32;;;8.45;;
36995;SDS011;22905;50.340;10.776;2023-05-07T00:08:49;12.65;;;8.73;;
36995;SDS011;22905;50.340;10.776;2023-05-07T00:13:50;14.03;;;9.33;;
36995;SDS011;22905;50.340;10.776;2023-05-07T00:18:50;14.48;;;8.88;;
36995;SDS011;22905;50.340;10.776;2023-05-07T00:23:50;14.23;;;8.00;;
36995;SDS011;22905;50.340;10.776;2023-05-07T00:28:51;13.98;;;8.35;;
36995;SDS011;22905;50.340;10.776;2023-05-07T00:33:51;15.52;;;10.23;;
36995;SDS011;22905;50.340;10.776;2023-05-07T00:38:51;14.13;;;10.18;;
36995;SDS011;22905;50.340;10.776;2023-05-07T00:43:52;16.23;;;9.40;;
36995;SDS011;22905;50.340;10.776;2023-05-07T00:48:52;16.42;;;10.27;;
36995;SDS011;22905;50.340;10.776;2023-05-07T00:53:53;13.32;;;9.40;;
36995;SDS011;22905;50.340;10.776;2023-05-07T00:58:54;15.50;;;9.73;;
36995;SDS011;22905;50.340;10.776;2023-05-07T01:03:54;15.15;;;10.20;;
36995;SDS011;22905;50.340;10.776;2023-05-07T01:08:55;15.37;;;10.83;;
36995;SDS011;22905;50.340;10.776;2023-05-07T01:13:58;16.63;;;11.40;;
36995;SDS011;22905;50.340;10.776;2023-05-07T01:18:59;15.50;;;10.40;;
36995;SDS011;22905;50.340;10.776;2023-05-07T01:24:00;19.60;;;11.80;;
36995;SDS011;22905;50.340;10.776;2023-05-07T01:29:00;14.63;;;10.07;;
36995;SDS011;22905;50.340;10.776;2023-05-07T01:34:01;16.50;;;11.30;;
36995;SDS011;22905;50.340;10.776;2023-05-07T01:39:01;20.05;;;11.52;;
36995;SDS011;22905;50.340;10.776;2023-05-07T01:44:03;23.02;;;12.68;;
36995;SDS011;22905;50.340;10.776;2023-05-07T01:49:03;24.42;;;12.55;;
36995;SDS011;22905;50.340;10.776;2023-05-07T01:54:04;19.63;;;12.40;;
36995;SDS011;22905;50.340;10.776;2023-05-07T01:59:05;19.92;;;12.27;;
36995;SDS011;22905;50.340;10.776;2023-05-07T02:04:05;23.10;;;13.00;;
36995;SDS011;22905;50.340;10.776;2023-05-07T02:09:05;20.13;;;13.57;;
36995;SDS011;22905;50.340;10.776;2023-05-07T02:14:06;24.15;;;13.68;;
36995;SDS011;22905;50.340;10.776;2023-05-07T02:19:06;20.37;;;13.30;;
36995;SDS011;22905;50.340;10.776;2023-05-07T02:24:06;20.05;;;13.32;;
36995;SDS011;22905;50.340;10.776;2023-05-07T02:29:07;19.77;;;13.13;;
36995;SDS011;22905;50.340;10.776;2023-05-07T02:34:07;18.85;;;12.63;;
36995;SDS011;22905;50.340;10.776;2023-05-07T02:39:07;18.98;;;14.07;;
36995;SDS011;22905;50.340;10.776;2023-05-07T02:44:07;18.43;;;12.47;;
36995;SDS011;22905;50.340;10.776;2023-05-07T02:49:09;21.90;;;12.23;;
36995;SDS011;22905;50.340;10.776;2023-05-07T02:54:09;19.52;;;12.43;;
36995;SDS011;22905;50.340;10.776;2023-05-07T02:59:09;24.80;;;14.13;;
36995;SDS011;22905;50.340;10.776;2023-05-07T03:04:10;30.08;;;14.52;;
36995;SDS011;22905;50.340;10.776;2023-05-07T03:09:11;27.63;;;14.63;;
36995;SDS011;22905;50.340;10.776;2023-05-07T03:14:11;27.17;;;15.00;;
36995;SDS011;22905;50.340;10.776;2023-05-07T03:19:11;28.50;;;15.38;;
36995;SDS011;22905;50.340;10.776;2023-05-07T03:24:12;25.27;;;14.45;;
36995;SDS011;22905;50.340;10.776;2023-05-07T03:29:12;29.50;;;15.83;;
36995;SDS011;22905;50.340;10.776;2023-05-07T03:34:12;21.10;;;13.60;;
36995;SDS011;22905;50.340;10.776;2023-05-07T03:39:12;22.13;;;13.05;;
36995;SDS011;22905;50.340;10.776;2023-05-07T03:44:13;28.38;;;14.50;;
36995;SDS011;22905;50.340;10.776;2023-05-07T03:49:13;21.83;;;13.60;;
36995;SDS011;22905;50.340;10.776;2023-05-07T03:54:13;24.45;;;13.60;;
36995;SDS011;22905;50.340;10.776;2023-05-07T03:59:14;25.67;;;13.88;;
36995;SDS011;22905;50.340;10.776;2023-05-07T04:04:14;24.45;;;14.82;;
36995;SDS011;22905;50.340;10.776;2023-05-07T04:09:15;22.67;;;13.35;;
36995;SDS011;22905;50.340;10.776;2023-05-07T04:14:15;24.07;;;13.07;;
36995;SDS011;22905;50.340;10.776;2023-05-07T04:19:15;21.02;;;13.10;;
36995;SDS011;22905;50.340;10.776;2023-05-07T04:24:16;21.92;;;13.82;;
36995;SDS011;22905;50.340;10.776;2023-05-07T04:29:16;23.17;;;15.53;;
36995;SDS011;22905;50.340;10.776;2023-05-07T04:34:17;22.23;;;13.25;;
36995;SDS011;22905;50.340;10.776;2023-05-07T04:39:17;23.35;;;14.10;;
36995;SDS011;22905;50.340;10.776;2023-05-07T04:44:17;22.50;;;12.65;;
36995;SDS011;22905;50.340;10.776;2023-05-07T04:49:18;21.90;;;14.00;;
36995;SDS011;22905;50.340;10.776;2023-05-07T04:54:18;23.75;;;13.95;;
36995;SDS011;22905;50.340;10.776;2023-05-07T04:59:18;22.45;;;13.68;;
36995;SDS011;22905;50.340;10.776;2023-05-07T05:04:19;27.90;;;16.58;;
36995;SDS011;22905;50.340;10.776;2023-05-07T05:09:19;27.83;;;13.30;;
36995;SDS011;22905;50.340;10.776;2023-05-07T05:14:19;18.67;;;13.37;;
36995;SDS011;22905;50.340;10.776;2023-05-07T05:19:20;21.07;;;11.73;;
36995;SDS011;22905;50.340;10.776;2023-05-07T05:24:20;19.47;;;11.43;;
36995;SDS011;22905;50.340;10.776;2023-05-07T05:29:20;18.73;;;11.18;;
36995;SDS011;22905;50.340;10.776;2023-05-07T05:34:21;16.73;;;10.35;;
36995;SDS011;22905;50.340;10.776;2023-05-07T05:39:22;18.77;;;11.43;;
36995;SDS011;22905;50.340;10.776;2023-05-07T05:44:23;20.70;;;12.35;;
36995;SDS011;22905;50.340;10.776;2023-05-07T05:49:23;18.67;;;10.97;;
36995;SDS011;22905;50.340;10.776;2023-05-07T05:54:23;18.73;;;11.27;;
36995;SDS011;22905;50.340;10.776;2023-05-07T05:59:24;19.52;;;11.38;;
36995;SDS011;22905;50.340;10.776;2023-05-07T06:04:24;18.25;;;11.20;;
36995;SDS011;22905;50.340;10.776;2023-05-07T06:09:25;18.13;;;11.00;;
36995;SDS011;22905;50.340;10.776;2023-05-07T06:14:25;17.58;;;10.50;;
36995;SDS011;22905;50.340;10.776;2023-05-07T06:19:25;19.60;;;10.88;;
36995;SDS011;22905;50.340;10.776;2023-05-07T06:24:28;20.27;;;10.70;;
36995;SDS011;22905;50.340;10.776;2023-05-07T06:29:28;22.17;;;11.88;;
36995;SDS011;22905;50.340;10.776;2023-05-07T06:34:31;18.13;;;10.77;;
36995;SDS011;22905;50.340;10.776;2023-05-07T06:39:31;18.77;;;11.13;;
36995;SDS011;22905;50.340;10.776;2023-05-07T06:44:32;17.02;;;10.70;;
36995;SDS011;22905;50.340;10.776;2023-05-07T06:49:32;21.40;;;11.53;;
36995;SDS011;22905;50.340;10.776;2023-05-07T06:54:33;16.27;;;9.57;;
36995;SDS011;22905;50.340;10.776;2023-05-07T06:59:33;15.40;;;9.10;;
36995;SDS011;22905;50.340;10.776;2023-05-07T07:04:33;12.63;;;8.43;;
36995;SDS011;22905;50.340;10.776;2023-05-07T07:09:34;11.88;;;8.40;;
36995;SDS011;22905;50.340;10.776;2023-05-07T07:14:34;14.77;;;7.18;;
36995;SDS011;22905;50.340;10.776;2023-05-07T07:19:35;10.73;;;7.63;;
36995;SDS011;22905;50.340;10.776;2023-05-07T07:24:35;11.80;;;6.50;;
36995;SDS011;22905;50.340;10.776;2023-05-07T07:29:35;9.85;;;6.78;;
36995;SDS011;22905;50.340;10.776;2023-05-07T07:34:36;9.98;;;6.07;;
36995;SDS011;22905;50.340;10.776;2023-05-07T07:39:36;8.45;;;5.85;;
36995;SDS011;22905;50.340;10.776;2023-05-07T07:44:37;9.35;;;5.57;;
36995;SDS011;22905;50.340;10.776;2023-05-07T07:49:39;11.52;;;6.07;;
36995;SDS011;22905;50.340;10.776;2023-05-07T07:54:39;10.03;;;6.47;;
36995;SDS011;22905;50.340;10.776;2023-05-07T07:59:40;11.63;;;5.88;;
36995;SDS011;22905;50.340;10.776;2023-05-07T08:04:42;8.80;;;5.40;;
36995;SDS011;22905;50.340;10.776;2023-05-07T08:09:43;8.98;;;5.47;;
36995;SDS011;22905;50.340;10.776;2023-05-07T08:14:43;8.43;;;5.67;;
36995;SDS011;22905;50.340;10.776;2023-05-07T08:19:43;6.37;;;4.87;;
36995;SDS011;22905;50.340;10.776;2023-05-07T08:24:44;8.13;;;5.53;;
36995;SDS011;22905;50.340;10.776;2023-05-07T08:29:44;8.52;;;5.63;;
36995;SDS011;22905;50.340;10.776;2023-05-07T08:34:47;9.25;;;5.45;;
36995;SDS011;22905;50.340;10.776;2023-05-07T08:39:48;10.10;;;5.78;;
36995;SDS011;22905;50.340;10.776;2023-05-07T08:44:48;8.23;;;4.63;;
36995;SDS011;22905;50.340;10.776;2023-05-07T08:49:53;7.78;;;4.68;;
36995;SDS011;22905;50.340;10.776;2023-05-07T08:54:54;7.18;;;4.43;;
36995;SDS011;22905;50.340;10.776;2023-05-07T08:59:55;6.15;;;3.95;;
36995;SDS011;22905;50.340;10.776;2023-05-07T09:04:55;5.80;;;3.70;;
36995;SDS011;22905;50.340;10.776;2023-05-07T09:09:55;5.47;;;4.30;;
36995;SDS011;22905;50.340;10.776;2023-05-07T09:14:57;4.80;;;3.45;;
36995;SDS011;22905;50.340;10.776;2023-05-07T09:20:02;10.30;;;7.20;;
36995;SDS011;22905;50.340;10.776;2023-05-07T09:25:06;6.05;;;3.75;;
36995;SDS011;22905;50.340;10.776;2023-05-07T09:30:07;8.33;;;3.73;;
36995;SDS011;22905;50.340;10.776;2023-05-07T09:35:14;11.32;;;3.08;;
36995;SDS011;22905;50.340;10.776;2023-05-07T09:40:28;6.82;;;3.67;;
36995;SDS011;22905;50.340;10.776;2023-05-07T09:45:29;6.72;;;3.22;;
36995;SDS011;22905;50.340;10.776;2023-05-07T09:50:32;5.22;;;3.50;;
36995;SDS011;22905;50.340;10.776;2023-05-07T09:55:36;4.88;;;3.60;;
36995;SDS011;22905;50.340;10.776;2023-05-07T10:00:36;6.32;;;3.70;;
36995;SDS011;22905;50.340;10.776;2023-05-07T10:05:37;5.20;;;3.78;;
36995;SDS011;22905;50.340;10.776;2023-05-07T10:10:38;4.30;;;3.38;;
36995;SDS011;22905;50.340;10.776;2023-05-07T10:15:38;4.97;;;3.23;;
36995;SDS011;22905;50.340;10.776;2023-05-07T10:20:39;9.52;;;5.40;;
36995;SDS011;22905;50.340;10.776;2023-05-07T10:25:41;5.47;;;3.67;;
36995;SDS011;22905;50.340;10.776;2023-05-07T10:36:19;7.25;;;3.78;;
36995;SDS011;22905;50.340;10.776;2023-05-07T10:41:20;4.97;;;3.30;;
36995;SDS011;22905;50.340;10.776;2023-05-07T10:46:22;3.97;;;2.88;;
36995;SDS011;22905;50.340;10.776;2023-05-07T10:51:22;4.68;;;3.40;;
36995;SDS011;22905;50.340;10.776;2023-05-07T11:01:49;3.60;;;3.03;;
36995;SDS011;22905;50.340;10.776;2023-05-07T11:12:09;4.80;;;2.92;;
36995;SDS011;22905;50.340;10.776;2023-05-07T11:17:10;4.65;;;2.50;;
36995;SDS011;22905;50.340;10.776;2023-05-07T11:27:30;3.88;;;2.65;;
36995;SDS011;22905;50.340;10.776;2023-05-07T11:32:31;4.28;;;3.10;;
36995;SDS011;22905;50.340;10.776;2023-05-07T11:37:32;6.85;;;3.05;;
36995;SDS011;22905;50.340;10.776;2023-05-07T11:42:33;3.72;;;2.53;;
36995;SDS011;22905;50.340;10.776;2023-05-07T11:47:34;6.32;;;2.95;;
36995;SDS011;22905;50.340;10.776;2023-05-07T11:52:35;6.27;;;2.97;;
36995;SDS011;22905;50.340;10.776;2023-05-07T11:57:35;4.27;;;2.73;;
36995;SDS011;22905;50.340;10.776;2023-05-07T12:02:35;4.63;;;2.70;;
36995;SDS011;22905;50.340;10.776;2023-05-07T12:07:36;8.27;;;2.90;;
36995;SDS011;22905;50.340;10.776;2023-05-07T12:12:40;3.70;;;2.20;;
36995;SDS011;22905;50.340;10.776;2023-05-07T12:17:41;3.50;;;2.33;;
36995;SDS011;22905;50.340;10.776;2023-05-07T12:22:42;4.77;;;3.03;;
36995;SDS011;22905;50.340;10.776;2023-05-07T12:27:42;3.70;;;2.77;;
36995;SDS011;22905;50.340;10.776;2023-05-07T12:32:43;6.15;;;3.47;;
36995;SDS011;22905;50.340;10.776;2023-05-07T12:37:45;4.15;;;2.75;;
36995;SDS011;22905;50.340;10.776;2023-05-07T12:42:54;3.67;;;2.63;;
36995;SDS011;22905;50.340;10.776;2023-05-07T12:47:55;3.80;;;2.97;;
36995;SDS011;22905;50.340;10.776;2023-05-07T12:52:56;4.47;;;2.50;;
36995;SDS011;22905;50.340;10.776;2023-05-07T12:57:56;4.30;;;2.50;;
36995;SDS011;22905;50.340;10.776;2023-05-07T13:02:58;3.40;;;2.80;;
36995;SDS011;22905;50.340;10.776;2023-05-07T13:07:58;6.97;;;3.17;;
36995;SDS011;22905;50.340;10.776;2023-05-07T13:12:58;11.13;;;2.80;;
36995;SDS011;22905;50.340;10.776;2023-05-07T13:17:59;6.57;;;2.40;;
36995;SDS011;22905;50.340;10.776;2023-05-07T13:22:59;4.53;;;2.08;;
36995;SDS011;22905;50.340;10.776;2023-05-07T13:28:01;4.53;;;2.45;;
36995;SDS011;22905;50.340;10.776;2023-05-07T13:33:02;6.30;;;2.27;;
36995;SDS011;22905;50.340;10.776;2023-05-07T13:38:03;5.10;;;2.75;;
36995;SDS011;22905;50.340;10.776;2023-05-07T13:43:05;4.50;;;2.75;;
36995;SDS011;22905;50.340;10.776;2023-05-07T13:48:06;4.18;;;2.88;;
36995;SDS011;22905;50.340;10.776;2023-05-07T13:53:07;4.40;;;3.80;;
36995;SDS011;22905;50.340;10.776;2023-05-07T13:58:07;8.20;;;4.18;;
36995;SDS011;22905;50.340;10.776;2023-05-07T14:03:08;7.47;;;4.13;;
36995;SDS011;22905;50.340;10.776;2023-05-07T14:08:08;7.13;;;4.22;;
36995;SDS011;22905;50.340;10.776;2023-05-07T14:13:08;6.50;;;4.00;;
36995;SDS011;22905;50.340;10.776;2023-05-07T14:18:08;7.18;;;4.50;;
36995;SDS011;22905;50.340;10.776;2023-05-07T14:23:09;5.47;;;4.17;;
36995;SDS011;22905;50.340;10.776;2023-05-07T14:28:09;7.00;;;4.20;;
36995;SDS011;22905;50.340;10.776;2023-05-07T14:33:09;5.13;;;3.83;;
36995;SDS011;22905;50.340;10.776;2023-05-07T14:38:10;7.93;;;3.73;;
36995;SDS011;22905;50.340;10.776;2023-05-07T14:43:10;5.95;;;3.75;;
36995;SDS011;22905;50.340;10.776;2023-05-07T14:48:10;5.28;;;3.80;;
36995;SDS011;22905;50.340;10.776;2023-05-07T14:53:15;4.90;;;3.08;;
36995;SDS011;22905;50.340;10.776;2023-05-07T14:58:15;4.90;;;3.40;;
36995;SDS011;22905;50.340;10.776;2023-05-07T15:03:16;6.77;;;4.13;;
36995;SDS011;22905;50.340;10.776;2023-05-07T15:08:16;6.03;;;4.15;;
36995;SDS011;22905;50.340;10.776;2023-05-07T15:13:17;7.32;;;4.40;;
36995;SDS011;22905;50.340;10.776;2023-05-07T15:18:17;7.70;;;4.57;;
36995;SDS011;22905;50.340;10.776;2023-05-07T15:23:18;6.43;;;3.93;;
36995;SDS011;22905;50.340;10.776;2023-05-07T15:28:18;5.53;;;4.10;;
36995;SDS011;22905;50.340;10.776;2023-05-07T15:33:19;6.72;;;4.72;;
36995;SDS011;22905;50.340;10.776;2023-05-07T15:38:19;6.35;;;4.72;;
36995;SDS011;22905;50.340;10.776;2023-05-07T15:43:20;7.43;;;5.05;;
36995;SDS011;22905;50.340;10.776;2023-05-07T15:48:20;9.60;;;5.22;;
36995;SDS011;22905;50.340;10.776;2023-05-07T15:53:20;8.37;;;5.23;;
36995;SDS011;22905;50.340;10.776;2023-05-07T15:58:21;7.50;;;5.38;;
36995;SDS011;22905;50.340;10.776;2023-05-07T16:03:21;8.87;;;4.93;;
36995;SDS011;22905;50.340;10.776;2023-05-07T16:08:22;7.53;;;4.80;;
36995;SDS011;22905;50.340;10.776;2023-05-07T16:13:23;7.50;;;4.95;;
36995;SDS011;22905;50.340;10.776;2023-05-07T16:18:24;8.40;;;4.40;;
36995;SDS011;22905;50.340;10.776;2023-05-07T16:23:24;5.10;;;4.27;;
36995;SDS011;22905;50.340;10.776;2023-05-07T16:28:24;7.43;;;3.83;;
36995;SDS011;22905;50.340;10.776;2023-05-07T16:33:25;6.35;;;4.15;;
36995;SDS011;22905;50.340;10.776;2023-05-07T16:38:25;7.32;;;4.43;;
36995;SDS011;22905;50.340;10.776;2023-05-07T16:43:27;6.10;;;4.43;;
36995;SDS011;22905;50.340;10.776;2023-05-07T16:48:27;7.22;;;4.75;;
36995;SDS011;22905;50.340;10.776;2023-05-07T16:53:28;5.47;;;4.03;;
36995;SDS011;22905;50.340;10.776;2023-05-07T16:58:28;6.33;;;4.03;;
36995;SDS011;22905;50.340;10.776;2023-05-07T17:03:29;6.07;;;3.75;;
36995;SDS011;22905;50.340;10.776;2023-05-07T17:08:30;7.93;;;4.10;;
36995;SDS011;22905;50.340;10.776;2023-05-07T17:13:31;5.40;;;3.57;;
36995;SDS011;22905;50.340;10.776;2023-05-07T17:18:31;6.05;;;3.60;;
36995;SDS011;22905;50.340;10.776;2023-05-07T17:23:32;4.83;;;3.57;;
36995;SDS011;22905;50.340;10.776;2023-05-07T17:28:32;6.82;;;4.40;;
36995;SDS011;22905;50.340;10.776;2023-05-07T17:33:32;5.38;;;3.53;;
36995;SDS011;22905;50.340;10.776;2023-05-07T17:38:33;3.80;;;3.30;;
36995;SDS011;22905;50.340;10.776;2023-05-07T17:43:34;7.28;;;3.70;;
36995;SDS011;22905;50.340;10.776;2023-05-07T17:48:34;5.32;;;3.45;;
36995;SDS011;22905;50.340;10.776;2023-05-07T17:53:34;6.88;;;3.90;;
36995;SDS011;22905;50.340;10.776;2023-05-07T17:58:35;9.10;;;4.13;;
36995;SDS011;22905;50.340;10.776;2023-05-07T18:03:35;7.50;;;3.60;;
36995;SDS011;22905;50.340;10.776;2023-05-07T18:08:36;5.15;;;3.50;;
36995;SDS011;22905;50.340;10.776;2023-05-07T18:13:37;6.75;;;3.95;;
36995;SDS011;22905;50.340;10.776;2023-05-07T18:18:37;5.67;;;3.67;;
36995;SDS011;22905;50.340;10.776;2023-05-07T18:23:37;4.93;;;3.23;;
36995;SDS011;22905;50.340;10.776;2023-05-07T18:28:38;5.50;;;3.70;;
36995;SDS011;22905;50.340;10.776;2023-05-07T18:33:38;8.63;;;3.58;;
36995;SDS011;22905;50.340;10.776;2023-05-07T18:38:38;4.50;;;3.08;;
36995;SDS011;22905;50.340;10.776;2023-05-07T18:48:41;5.78;;;3.40;;
36995;SDS011;22905;50.340;10.776;2023-05-07T18:53:41;6.60;;;3.60;;
36995;SDS011;22905;50.340;10.776;2023-05-07T18:58:42;4.78;;;3.45;;
36995;SDS011;22905;50.340;10.776;2023-05-07T19:03:42;6.15;;;4.00;;
36995;SDS011;22905;50.340;10.776;2023-05-07T19:08:42;6.80;;;3.60;;
36995;SDS011;22905;50.340;10.776;2023-05-07T19:13:43;5.90;;;3.67;;
36995;SDS011;22905;50.340;10.776;2023-05-07T19:18:43;6.50;;;3.93;;
36995;SDS011;22905;50.340;10.776;2023-05-07T19:23:43;6.77;;;4.30;;
36995;SDS011;22905;50.340;10.776;2023-05-07T19:28:45;9.57;;;4.60;;
36995;SDS011;22905;50.340;10.776;2023-05-07T19:33:45;5.47;;;3.83;;
36995;SDS011;22905;50.340;10.776;2023-05-07T19:38:46;4.60;;;3.55;;
36995;SDS011;22905;50.340;10.776;2023-05-07T19:43:48;7.47;;;4.15;;
36995;SDS011;22905;50.340;10.776;2023-05-07T19:48:49;7.93;;;4.32;;
36995;SDS011;22905;50.340;10.776;2023-05-07T19:53:49;8.32;;;5.93;;
36995;SDS011;22905;50.340;10.776;2023-05-07T19:58:50;6.13;;;4.57;;
36995;SDS011;22905;50.340;10.776;2023-05-07T20:03:51;11.02;;;5.03;;
36995;SDS011;22905;50.340;10.776;2023-05-07T20:08:52;7.50;;;4.65;;
36995;SDS011;22905;50.340;10.776;2023-05-07T20:13:52;7.43;;;4.60;;
36995;SDS011;22905;50.340;10.776;2023-05-07T20:18:52;8.20;;;4.25;;
36995;SDS011;22905;50.340;10.776;2023-05-07T20:23:52;9.07;;;4.20;;
36995;SDS011;22905;50.340;10.776;2023-05-07T20:28:53;8.65;;;5.65;;
36995;SDS011;22905;50.340;10.776;2023-05-07T20:33:53;7.03;;;5.18;;
36995;SDS011;22905;50.340;10.776;2023-05-07T20:38:53;9.63;;;6.05;;
36995;SDS011;22905;50.340;10.776;2023-05-07T20:43:55;7.47;;;5.07;;
36995;SDS011;22905;50.340;10.776;2023-05-07T20:48:56;8.00;;;5.93;;
36995;SDS011;22905;50.340;10.776;2023-05-07T20:53:56;8.40;;;5.28;;
36995;SDS011;22905;50.340;10.776;2023-05-07T20:58:56;10.57;;;5.50;;
36995;SDS011;22905;50.340;10.776;2023-05-07T21:03:56;10.02;;;6.43;;
36995;SDS011;22905;50.340;10.776;2023-05-07T21:08:57;9.23;;;5.53;;
36995;SDS011;22905;50.340;10.776;2023-05-07T21:13:57;12.98;;;6.20;;
36995;SDS011;22905;50.340;10.776;2023-05-07T21:18:57;9.15;;;5.18;;
36995;SDS011;22905;50.340;10.776;2023-05-07T21:23:58;9.27;;;6.17;;
36995;SDS011;22905;50.340;10.776;2023-05-07T21:28:58;8.23;;;6.32;;
36995;SDS011;22905;50.340;10.776;2023-05-07T21:33:59;10.25;;;6.32;;
36995;SDS011;22905;50.340;10.776;2023-05-07T21:38:59;10.73;;;6.87;;
36995;SDS011;22905;50.340;10.776;2023-05-07T21:43:59;13.53;;;7.83;;
36995;SDS011;22905;50.340;10.776;2023-05-07T21:49:00;8.60;;;6.70;;
36995;SDS011;22905;50.340;10.776;2023-05-07T21:54:00;11.10;;;7.00;;
36995;SDS011;22905;50.340;10.776;2023-05-07T21:59:00;12.10;;;7.93;;
36995;SDS011;22905;50.340;10.776;2023-05-07T22:04:01;8.67;;;7.00;;
36995;SDS011;22905;50.340;10.776;2023-05-07T22:09:01;10.67;;;7.37;;
36995;SDS011;22905;50.340;10.776;2023-05-07T22:14:02;11.30;;;7.88;;
36995;SDS011;22905;50.340;10.776;2023-05-07T22:19:02;11.52;;;7.50;;
36995;SDS011;22905;50.340;10.776;2023-05-07T22:24:03;9.57;;;6.93;;
36995;SDS011;22905;50.340;10.776;2023-05-07T22:29:06;13.25;;;8.30;;
36995;SDS011;22905;50.340;10.776;2023-05-07T22:34:06;8.73;;;6.53;;
36995;SDS011;22905;50.340;10.776;2023-05-07T22:39:06;11.10;;;7.77;;
36995;SDS011;22905;50.340;10.776;2023-05-07T22:44:08;10.03;;;8.20;;
36995;SDS011;22905;50.340;10.776;2023-05-07T22:49:09;10.02;;;7.82;;
36995;SDS011;22905;50.340;10.776;2023-05-07T22:54:09;11.40;;;7.60;;
36995;SDS011;22905;50.340;10.776;2023-05-07T22:59:09;11.60;;;7.20;;
36995;SDS011;22905;50.340;10.776;2023-05-07T23:04:10;11.17;;;7.57;;
36995;SDS011;22905;50.340;10.776;2023-05-07T23:09:10;10.10;;;7.47;;
36995;SDS011;22905;50.340;10.776;2023-05-07T23:14:11;11.20;;;8.13;;
36995;SDS011;22905;50.340;10.776;2023-05-07T23:19:12;11.63;;;8.00;;
36995;SDS011;22905;50.340;10.776;2023-05-07T23:24:12;10.32;;;7.30;;
36995;SDS011;22905;50.340;10.776;2023-05-07T23:29:12;11.30;;;7.78;;
36995;SDS011;22905;50.340;10.776;2023-05-07T23:34:12;11.65;;;7.05;;
36995;SDS011;22905;50.340;10.776;2023-05-07T23:39:13;11.52;;;8.27;;
36995;SDS011;22905;50.340;10.776;2023-05-07T23:44:13;12.15;;;7.05;;
36995;SDS011;22905;50.340;10.776;2023-05-07T23:49:16;11.63;;;8.02;;
36995;SDS011;22905;50.340;10.776;2023-05-07T23:54:16;9.90;;;6.73;;
36995;SDS011;22905;50.340;10.776;2023-05-07T23:59:17;9.27;;;7.05;;
